createdAt,value
2023-04-12T00:57:20.200Z,100974.66
2023-04-12T00:59:49.597Z,100973.03
2023-04-12T02:58:44.809Z,100866.31
2023-04-12T05:01:37.546Z,100748.81
2023-04-12T05:04:08.824Z,100736.00
2023-04-12T05:06:39.660Z,100735.19
2023-04-12T05:09:10.603Z,100734.81
2023-04-12T05:11:47.887Z,100728.41
2023-04-12T05:14:16.590Z,100732.41
2023-04-12T05:16:44.650Z,100731.22
2023-04-12T05:19:14.193Z,100726.00
2023-04-12T05:21:43.453Z,100726.00
2023-04-12T05:24:11.679Z,100730.41
2023-04-12T05:26:41.335Z,100718.41
2023-04-12T05:29:14.455Z,100722.38
2023-04-12T05:31:43.775Z,100712.00
2023-04-12T05:34:20.750Z,100717.59
2023-04-12T05:36:54.632Z,100703.63
2023-04-12T05:39:23.309Z,100708.03
2023-04-12T05:41:53.589Z,100700.81
2023-04-12T05:44:23.476Z,100694.41
2023-04-12T05:47:00.638Z,100698.00
2023-04-12T05:49:32.943Z,100695.22
2023-04-12T05:52:04.726Z,100678.44
2023-04-12T05:54:34.111Z,100681.22
2023-04-12T05:57:02.521Z,100677.63
2023-04-12T05:59:32.070Z,100670.38
2023-04-12T06:02:06.389Z,100662.38
2023-04-12T06:07:13.179Z,100664.78
2023-04-12T06:09:44.616Z,100662.38
2023-04-12T06:12:13.813Z,100656.78
2023-04-12T06:14:45.154Z,100656.78
2023-04-12T06:17:13.739Z,100647.19
2023-04-12T06:19:43.291Z,100647.19
2023-04-12T06:22:11.796Z,100648.00
2023-04-12T06:27:25.898Z,100631.59
2023-04-12T06:29:57.249Z,100632.06
2023-04-12T06:32:45.943Z,100624.00
2023-04-12T06:35:20.352Z,100630.78
2023-04-12T06:37:49.303Z,100620.41
2023-04-12T06:44:26.901Z,100614.38
2023-04-12T06:50:26.835Z,100607.97
2023-04-12T06:53:56.513Z,100595.97
2023-04-12T07:00:07.965Z,100593.53
2023-04-12T07:06:24.286Z,100587.13
2023-04-12T07:12:51.925Z,100582.00
2023-04-12T07:15:29.075Z,100571.25
2023-04-12T07:17:57.738Z,100571.25
2023-04-12T07:20:26.254Z,100565.63
2023-04-12T07:22:55.912Z,100560.78
2023-04-12T07:25:35.816Z,100559.91
2023-04-12T07:28:09.052Z,100556.72
2023-04-12T07:30:41.249Z,100543.13
2023-04-12T07:33:23.490Z,100540.34
2023-04-12T07:35:53.060Z,100542.31
2023-04-12T07:38:28.801Z,100531.94
2023-04-12T07:40:57.177Z,100518.38
2023-04-12T07:43:25.855Z,100519.94
2023-04-12T07:45:55.797Z,100530.28
2023-04-12T07:48:26.152Z,100517.50
2023-04-12T07:50:54.334Z,100508.75
2023-04-12T07:53:26.822Z,100498.28
2023-04-12T07:55:55.443Z,100508.69
2023-04-12T07:58:25.678Z,100495.88
2023-04-12T08:01:06.121Z,100503.09
2023-04-12T08:03:38.091Z,100489.09
2023-04-12T08:06:10.400Z,100482.75
2023-04-12T08:08:40.942Z,100476.00
2023-04-12T08:11:28.003Z,100475.25
2023-04-12T08:13:58.402Z,100480.03
2023-04-12T08:16:32.943Z,100476.84
2023-04-12T08:19:03.382Z,100468.13
2023-04-12T08:21:31.664Z,100464.56
2023-04-12T08:24:01.556Z,100464.94
2023-04-12T08:26:33.947Z,100459.34
2023-04-12T09:45:13.962Z,100335.84
2023-04-12T09:47:47.160Z,100337.00
2023-04-12T09:50:23.030Z,100326.69
2023-04-12T09:52:54.479Z,100329.06
2023-04-12T09:55:24.338Z,100313.03
2023-04-12T09:57:57.899Z,100311.84
2023-04-12T10:00:30.837Z,100291.84
2023-04-12T10:03:05.112Z,100297.84
2023-04-12T10:05:34.020Z,100289.91
2023-04-12T10:08:12.443Z,100284.31
2023-04-12T10:10:52.029Z,100274.34
2023-04-12T10:13:31.220Z,100270.75
2023-04-12T10:16:08.188Z,100256.75
2023-04-12T10:18:45.569Z,100265.97
2023-04-12T10:21:29.767Z,100254.78
2023-04-12T10:24:07.931Z,100244.34
2023-04-12T10:26:50.423Z,100248.38
2023-04-12T10:29:42.560Z,100246.75
2023-04-12T10:32:41.628Z,100235.56
2023-04-12T10:35:17.084Z,100223.66
2023-04-12T10:38:04.207Z,100221.66
2023-04-12T10:40:34.374Z,100224.06
2023-04-12T10:43:30.901Z,100210.09
2023-04-12T10:51:01.474Z,100202.00
2023-04-12T10:54:32.296Z,100203.63
2023-04-12T10:57:29.244Z,100178.44
2023-04-12T10:59:59.726Z,100192.44
2023-04-12T11:02:34.671Z,100181.25
2023-04-12T11:05:10.397Z,100178.44
2023-04-12T11:08:03.511Z,100177.25
2023-04-12T11:10:43.481Z,100157.31
2023-04-12T11:13:20.465Z,100167.72
2023-04-12T11:15:52.692Z,100150.16
2023-04-12T11:18:23.849Z,100136.56
2023-04-12T11:20:52.571Z,100151.00
2023-04-12T11:23:22.237Z,100151.00
2023-04-12T11:25:54.307Z,100138.22
2023-04-12T11:28:30.460Z,100141.44
2023-04-12T11:31:04.941Z,100130.25
2023-04-12T11:33:48.979Z,100126.63
2023-04-12T11:36:21.934Z,100119.84
2023-04-12T11:39:14.589Z,100115.06
2023-04-12T11:41:53.734Z,100131.03
2023-04-12T11:44:23.115Z,100111.03
2023-04-12T11:46:53.636Z,100111.03
2023-04-12T11:49:52.127Z,100108.25
2023-04-12T11:52:34.244Z,100076.22
2023-04-12T11:55:28.353Z,100082.69
2023-04-12T11:58:04.144Z,100072.69
2023-04-12T12:00:37.364Z,100068.69
2023-04-12T12:03:08.749Z,100061.50
2023-04-12T12:05:42.078Z,100058.31
2023-04-12T12:08:19.447Z,100060.72
2023-04-12T12:11:07.398Z,100039.53
2023-04-12T12:13:54.487Z,100044.72
2023-04-12T12:16:31.280Z,100042.31
2023-04-12T12:19:08.079Z,100038.66
2023-04-12T12:22:31.924Z,100034.28
2023-04-12T12:29:28.733Z,100027.13
2023-04-12T12:33:09.926Z,100019.09
2023-04-12T12:42:01.693Z,100006.28
2023-04-12T12:44:52.672Z,100001.47
2023-04-12T12:48:10.283Z,99991.09
2023-04-12T12:50:51.508Z,100005.09
2023-04-12T12:53:45.829Z,99989.50
2023-04-12T12:56:40.753Z,99983.91
2023-04-12T12:59:26.189Z,99975.97
2023-04-12T13:02:08.225Z,99970.38
2023-04-12T13:04:39.896Z,99968.75
2023-04-12T13:07:26.520Z,99968.34
2023-04-12T13:10:37.754Z,99974.34
2023-04-12T13:17:00.437Z,99959.94
2023-04-12T13:27:04.282Z,99939.94
2023-04-12T13:37:27.060Z,99921.56
2023-04-12T13:40:49.474Z,99928.38
2023-04-12T13:43:47.707Z,99924.78
2023-04-12T13:46:19.067Z,99914.38
2023-04-12T13:49:09.236Z,99920.03
2023-04-12T13:51:45.912Z,99910.44
2023-04-12T13:54:25.894Z,99904.03
2023-04-12T14:00:42.969Z,99899.66
2023-04-12T14:03:32.028Z,99909.66
2023-04-12T14:06:06.768Z,99906.84
2023-04-12T14:08:40.987Z,99899.66
2023-04-12T14:11:14.656Z,99901.25
2023-04-12T14:13:54.177Z,99914.44
2023-04-12T14:16:33.594Z,99916.88
2023-04-12T14:19:17.221Z,99927.28
2023-04-12T14:21:58.425Z,99928.47
2023-04-12T14:24:30.260Z,99932.84
2023-04-12T14:27:02.642Z,99924.84
2023-04-12T14:29:33.678Z,99921.63
2023-04-12T14:32:12.570Z,99920.44
2023-04-12T14:34:45.029Z,99920.84
2023-04-12T14:37:14.739Z,99920.84
2023-04-12T14:39:45.106Z,99928.88
2023-04-12T14:42:17.126Z,99932.47
2023-04-12T14:44:45.340Z,99930.44
2023-04-12T14:47:13.653Z,99919.25
2023-04-12T14:49:41.973Z,99920.84
2023-04-12T14:52:10.363Z,99926.44
2023-04-12T14:54:38.882Z,99924.84
2023-04-12T14:57:07.399Z,99930.44
2023-04-12T14:59:37.474Z,99925.63
2023-04-12T15:02:12.160Z,99929.22
2023-04-12T15:04:52.262Z,99934.41
2023-04-12T15:09:18.474Z,99935.63
2023-04-12T15:10:49.111Z,99932.00
2023-04-12T15:13:35.716Z,99928.03
2023-04-12T15:16:17.070Z,99936.03
2023-04-12T15:19:18.400Z,99936.81
2023-04-12T15:22:15.521Z,99936.47
2023-04-12T15:24:58.423Z,99942.88
2023-04-12T15:27:34.781Z,99941.72
2023-04-12T15:30:16.069Z,99932.13
2023-04-12T15:33:00.354Z,99935.31
2023-04-12T15:35:31.896Z,99935.31
2023-04-12T15:38:00.159Z,99936.94
2023-04-12T15:40:28.449Z,99926.53
2023-04-12T15:42:56.673Z,99940.16
2023-04-12T15:45:27.405Z,99932.94
2023-04-12T15:47:59.365Z,99940.16
2023-04-12T15:50:31.903Z,99925.75
2023-04-12T15:53:01.201Z,99920.16
2023-04-12T15:55:41.235Z,99922.94
2023-04-12T15:58:12.149Z,99927.78
2023-04-12T16:00:40.494Z,99913.78
2023-04-12T16:03:09.271Z,99904.19
2023-04-12T16:05:39.143Z,99900.19
2023-04-12T16:08:07.731Z,99897.41
2023-04-12T16:10:38.787Z,99900.19
2023-04-12T16:13:06.865Z,99905.81
2023-04-12T16:15:35.279Z,99901.00
2023-04-12T16:18:03.776Z,99909.84
2023-04-12T16:20:32.031Z,99895.44
2023-04-12T16:23:03.855Z,99899.44
2023-04-12T16:25:32.317Z,99889.84
2023-04-12T16:28:02.579Z,99886.25
2023-04-12T16:30:32.806Z,99876.63
2023-04-12T16:33:01.019Z,99869.44
2023-04-12T16:35:29.267Z,99869.03
2023-04-12T16:37:57.796Z,99868.59
2023-04-12T16:40:29.543Z,99872.22
2023-04-12T16:43:00.914Z,99873.81
2023-04-12T16:45:29.277Z,99865.78
2023-04-12T16:47:57.476Z,99869.41
2023-04-12T16:50:27.304Z,99870.22
2023-04-12T16:52:55.447Z,99862.63
2023-04-12T16:55:24.446Z,99863.03
2023-04-12T16:57:55.005Z,99848.25
2023-04-12T17:00:24.093Z,99846.63
2023-04-12T17:02:53.275Z,99837.81
2023-04-12T17:05:21.867Z,99839.44
2023-04-12T17:07:54.411Z,99843.44
2023-04-12T17:10:25.266Z,99842.63
2023-04-12T17:12:58.652Z,99839.03
2023-04-12T17:15:28.340Z,99837.03
2023-04-12T17:18:09.944Z,99826.66
2023-04-12T17:20:38.514Z,99829.84
2023-04-12T17:23:07.952Z,99821.47
2023-04-12T17:25:38.314Z,99820.25
2023-04-12T17:28:10.603Z,99815.47
2023-04-12T17:30:39.321Z,99817.47
2023-04-12T17:33:09.017Z,99809.47
2023-04-12T17:35:40.888Z,99803.88
2023-04-12T17:38:09.494Z,99808.28
2023-04-12T17:40:39.815Z,99813.06
2023-04-12T17:43:09.769Z,99815.84
2023-04-12T17:45:40.709Z,99825.84
2023-04-12T17:48:14.992Z,99823.47
2023-04-12T17:50:47.705Z,99820.66
2023-04-12T17:53:17.394Z,99810.66
2023-04-12T17:55:50.523Z,99805.88
2023-04-12T17:58:24.585Z,99808.31
2023-04-12T18:00:56.655Z,99804.31
2023-04-12T18:03:27.990Z,99805.91
2023-04-12T18:09:38.928Z,99804.31
2023-04-12T18:12:13.382Z,99803.50
2023-04-12T18:15:02.471Z,99798.72
2023-04-12T18:17:47.505Z,99807.09
2023-04-12T18:24:13.796Z,99813.09
2023-04-12T19:58:14.531Z,99743.50
2023-04-12T20:00:48.932Z,99737.91
2023-04-12T20:03:19.949Z,99732.31
2023-04-12T20:05:50.144Z,99736.31
2023-04-12T20:08:26.081Z,99737.91
2023-04-12T20:11:00.737Z,99740.31
2023-04-12T20:13:39.548Z,99741.16
2023-04-12T20:16:11.469Z,99734.34
2023-04-12T20:18:43.337Z,99737.94
2023-04-12T20:21:13.565Z,99725.97
2023-04-12T20:24:13.467Z,99727.56
2023-04-12T20:26:53.042Z,99714.38
2023-04-12T20:29:33.946Z,99705.97
2023-04-12T20:32:07.317Z,99708.38
2023-04-12T20:34:40.911Z,99706.78
2023-04-12T20:37:10.211Z,99716.38
2023-04-12T20:39:39.930Z,99716.38
2023-04-12T20:42:21.466Z,99721.97
2023-04-12T20:45:03.516Z,99725.16
2023-04-12T20:47:43.932Z,99729.97
2023-04-12T20:50:13.159Z,99725.53
2023-04-12T20:52:43.648Z,99728.31
2023-04-12T20:55:17.770Z,99726.34
2023-04-12T20:57:57.019Z,99717.13
2023-04-12T21:00:44.354Z,99725.53
2023-04-12T21:03:18.074Z,99715.94
2023-04-12T21:05:52.809Z,99721.13
2023-04-12T21:12:26.005Z,99721.13
2023-04-12T21:15:15.479Z,99726.72
2023-04-12T21:17:46.578Z,99708.75
2023-04-12T21:20:18.807Z,99703.16
2023-04-12T21:22:53.831Z,99701.56
2023-04-12T21:25:22.069Z,99710.38
2023-04-12T21:27:53.928Z,99719.56
2023-04-12T21:30:27.384Z,99720.38
2023-04-12T21:33:05.474Z,99716.38
2023-04-12T21:35:34.622Z,99714.38
2023-04-12T21:38:10.696Z,99719.97
2023-04-12T21:40:42.350Z,99717.16
2023-04-12T21:43:12.509Z,99720.38
2023-04-12T21:45:40.963Z,99723.97
2023-04-12T21:48:23.868Z,99713.16
2023-04-12T21:51:03.260Z,99720.38
2023-04-12T21:53:33.592Z,99722.72
2023-04-12T21:56:02.612Z,99722.72
2023-04-12T21:58:41.209Z,99724.38
2023-04-12T22:01:12.287Z,99714.34
2023-04-12T22:03:45.594Z,99706.38
2023-04-12T22:06:17.800Z,99696.78
2023-04-12T22:08:52.684Z,99704.78
2023-04-12T22:11:23.619Z,99709.16
2023-04-12T22:13:55.790Z,99720.38
2023-04-12T22:16:25.183Z,99726.75
2023-04-12T22:18:59.961Z,99733.16
2023-04-12T22:21:28.703Z,99735.97
2023-04-12T22:23:59.765Z,99737.56
2023-04-12T22:26:33.126Z,99735.56
2023-04-12T22:29:04.716Z,99734.00
2023-04-12T22:31:35.992Z,99746.78
2023-04-12T22:37:21.264Z,99742.38
2023-04-12T22:40:02.049Z,99734.78
2023-04-12T22:42:51.577Z,99741.19
2023-04-12T22:45:22.728Z,99739.97
2023-04-12T22:51:55.871Z,99726.00
2023-04-12T22:54:32.042Z,99731.59
2023-04-12T22:57:11.324Z,99733.19
